createdAt,value
2023-05-19T00:01:41.558Z,85.17
2023-05-19T00:04:12.338Z,85.38
2023-05-19T00:06:52.513Z,85.63
2023-05-19T00:09:29.222Z,85.34
2023-05-19T00:12:00.130Z,85.38
2023-05-19T00:14:27.370Z,85.94
2023-05-19T00:17:07.443Z,85.46
2023-05-19T00:19:34.065Z,86.21
2023-05-19T00:22:10.022Z,86.45
2023-05-19T00:24:37.061Z,87.21
2023-05-19T00:27:10.257Z,87.00
2023-05-19T00:29:53.500Z,86.78
2023-05-19T00:32:23.222Z,86.93
2023-05-19T00:34:51.681Z,88.11
2023-05-19T00:37:26.648Z,87.30
2023-05-19T00:39:53.847Z,87.87
2023-05-19T00:42:21.615Z,88.68
2023-05-19T00:44:48.260Z,88.26
2023-05-19T00:47:23.410Z,88.05
2023-05-19T00:49:51.973Z,88.74
2023-05-19T00:52:20.509Z,88.26
2023-05-19T00:54:51.565Z,88.56
2023-05-19T00:57:18.989Z,89.26
2023-05-19T00:59:57.277Z,89.90
2023-05-19T01:02:27.432Z,90.98
2023-05-19T01:04:57.262Z,90.79
2023-05-19T01:07:25.792Z,90.57
2023-05-19T01:09:53.869Z,91.49
2023-05-19T01:12:20.848Z,92.95
2023-05-19T01:14:47.771Z,92.80
2023-05-19T01:17:51.953Z,91.93
2023-05-19T01:20:27.449Z,92.90
2023-05-19T01:23:28.747Z,92.91
2023-05-19T01:26:27.734Z,93.06
2023-05-19T01:29:09.172Z,93.54
2023-05-19T01:34:28.052Z,93.96
2023-05-19T01:37:01.047Z,94.76
2023-05-19T01:39:29.994Z,95.06
2023-05-19T01:42:00.901Z,95.53
2023-05-19T01:44:28.004Z,95.48
2023-05-19T01:46:59.558Z,96.25
2023-05-19T01:49:26.491Z,95.89
2023-05-19T01:51:55.610Z,97.33
2023-05-19T01:54:26.033Z,97.91
2023-05-19T01:57:06.242Z,97.56
2023-05-19T01:59:57.686Z,98.29
2023-05-19T02:03:01.325Z,98.54
2023-05-19T02:05:56.948Z,98.89
2023-05-19T02:08:52.057Z,97.93
2023-05-19T02:11:39.179Z,99.01
2023-05-19T02:14:32.770Z,99.33
2023-05-19T02:17:04.793Z,100.00
2023-05-19T02:19:34.681Z,100.00
2023-05-19T02:22:01.258Z,100.00
2023-05-19T02:24:27.765Z,100.00
2023-05-19T02:26:57.401Z,100.00
2023-05-19T02:29:25.162Z,100.00
2023-05-19T02:31:52.154Z,100.00
2023-05-19T02:34:20.052Z,100.00
2023-05-19T02:36:49.799Z,100.00
2023-05-19T02:39:17.221Z,100.00
2023-05-19T02:41:47.534Z,100.00
2023-05-19T02:44:14.336Z,100.00
2023-05-19T02:46:42.521Z,100.00
2023-05-19T02:49:20.461Z,100.00
2023-05-19T02:51:47.116Z,100.00
2023-05-19T02:54:15.969Z,100.00
2023-05-19T02:56:45.412Z,100.00
2023-05-19T02:59:14.139Z,100.00
2023-05-19T03:05:21.650Z,100.00
2023-05-19T03:07:52.755Z,100.00
2023-05-19T03:10:19.424Z,100.00
2023-05-19T03:12:46.460Z,100.00
2023-05-19T03:15:16.239Z,100.00
2023-05-19T03:17:43.470Z,100.00
2023-05-19T03:20:17.093Z,100.00
2023-05-19T03:31:48.405Z,100.00
2023-05-19T03:34:24.668Z,100.00
2023-05-19T03:36:51.524Z,100.00
2023-05-19T03:39:20.401Z,100.00
2023-05-19T03:44:28.987Z,100.00
2023-05-19T03:46:56.604Z,100.00
2023-05-19T03:49:25.816Z,100.00
2023-05-19T03:51:53.148Z,100.00
2023-05-19T03:54:21.108Z,100.00
2023-05-19T03:56:48.705Z,100.00
2023-05-19T03:59:18.054Z,100.00
2023-05-19T04:01:44.873Z,100.00
2023-05-19T04:04:11.642Z,100.00
2023-05-19T04:09:21.620Z,100.00
2023-05-19T04:11:48.226Z,100.00
2023-05-19T04:14:17.738Z,100.00
2023-05-19T04:16:45.731Z,100.00
2023-05-19T04:19:13.825Z,100.00
2023-05-19T04:21:40.824Z,100.00
2023-05-19T04:24:08.632Z,100.00
2023-05-19T04:26:42.036Z,100.00
2023-05-19T04:29:08.873Z,100.00
2023-05-19T04:31:40.256Z,100.00
2023-05-19T04:34:10.550Z,100.00
2023-05-19T04:36:40.562Z,100.00
2023-05-19T04:39:15.642Z,100.00
2023-05-19T04:41:44.919Z,100.00
2023-05-19T04:44:18.499Z,100.00
2023-05-19T04:46:47.696Z,100.00
2023-05-19T04:49:21.910Z,100.00
2023-05-19T04:51:51.070Z,100.00
2023-05-19T04:54:29.010Z,100.00
2023-05-19T04:56:55.675Z,100.00
2023-05-19T04:59:22.376Z,100.00
2023-05-19T05:01:54.464Z,100.00
2023-05-19T05:04:22.689Z,100.00
2023-05-19T05:06:54.122Z,100.00
2023-05-19T05:09:21.368Z,100.00
2023-05-19T05:11:49.046Z,100.00
2023-05-19T05:14:17.058Z,100.00
2023-05-19T05:16:46.702Z,100.00
2023-05-19T05:19:13.800Z,100.00
2023-05-19T05:21:42.925Z,100.00
2023-05-19T05:24:14.141Z,100.00
2023-05-19T05:26:50.403Z,100.00
2023-05-19T05:29:18.986Z,100.00
2023-05-19T05:31:47.510Z,100.00
2023-05-19T05:34:14.187Z,100.00
2023-05-19T05:36:51.732Z,98.50
2023-05-19T05:39:18.672Z,97.89
2023-05-19T05:41:45.357Z,95.95
2023-05-19T05:44:12.122Z,96.29
2023-05-19T05:46:40.367Z,95.19
2023-05-19T05:49:08.612Z,93.57
2023-05-19T05:51:46.386Z,93.00
2023-05-19T05:54:27.872Z,92.75
2023-05-19T05:56:57.528Z,89.14
2023-05-19T06:02:07.724Z,89.14
2023-05-19T06:04:37.011Z,88.65
2023-05-19T06:07:06.814Z,86.30
2023-05-19T06:09:36.798Z,84.88
2023-05-19T06:12:04.046Z,84.47
2023-05-19T06:14:33.547Z,83.91
2023-05-19T06:17:00.852Z,79.79
2023-05-19T06:19:29.589Z,77.37
2023-05-19T06:22:03.830Z,74.53
2023-05-19T06:24:30.651Z,74.68
2023-05-19T06:26:58.452Z,72.52
2023-05-19T06:29:30.474Z,71.44
2023-05-19T06:31:58.935Z,68.13
2023-05-19T06:34:27.553Z,67.88
2023-05-19T06:39:40.284Z,63.87
2023-05-19T06:42:08.834Z,60.73
2023-05-19T06:44:35.528Z,59.65
2023-05-19T06:47:03.454Z,60.13
2023-05-19T06:49:33.010Z,60.44
2023-05-19T06:52:02.358Z,62.12
2023-05-19T06:57:19.191Z,61.17
2023-05-19T06:59:49.625Z,60.34
2023-05-19T07:02:16.533Z,60.08
2023-05-19T07:07:35.808Z,58.16
2023-05-19T07:10:13.180Z,59.28
2023-05-19T07:12:55.812Z,59.81
2023-05-19T07:15:25.985Z,56.57
2023-05-19T07:22:12.133Z,55.86
2023-05-19T07:24:46.582Z,54.58
2023-05-19T07:27:16.628Z,54.44
2023-05-19T07:37:19.740Z,54.27
2023-05-19T07:42:35.117Z,53.52
2023-05-19T07:45:14.380Z,54.27
2023-05-19T07:51:19.903Z,57.43
2023-05-19T07:54:07.260Z,56.24
2023-05-19T07:59:32.279Z,56.47
2023-05-19T08:02:04.689Z,57.12
2023-05-19T08:07:14.526Z,50.25
2023-05-19T08:09:51.380Z,50.19
2023-05-19T08:15:15.422Z,48.74
2023-05-19T08:17:45.333Z,48.94
2023-05-19T08:20:13.721Z,49.95
2023-05-19T08:22:41.823Z,48.48
2023-05-19T08:25:17.078Z,49.12
2023-05-19T08:27:46.936Z,49.77
2023-05-19T08:30:24.564Z,49.94
2023-05-19T08:32:54.409Z,49.92
2023-05-19T08:35:21.617Z,49.26
2023-05-19T08:37:55.703Z,47.90
2023-05-19T08:40:28.728Z,48.20
2023-05-19T08:43:06.532Z,47.54
2023-05-19T08:48:33.572Z,44.05
2023-05-19T08:51:22.937Z,43.88
2023-05-19T08:54:13.833Z,44.63
2023-05-19T08:56:42.427Z,43.54
2023-05-19T08:59:10.353Z,44.42
2023-05-19T09:09:06.478Z,43.92
2023-05-19T09:19:28.145Z,44.81
2023-05-19T09:25:44.609Z,43.04
2023-05-19T09:41:32.511Z,41.45
2023-05-19T09:44:00.051Z,41.66
2023-05-19T09:46:31.377Z,39.84
2023-05-19T09:49:01.666Z,40.28
2023-05-19T09:57:54.013Z,40.00
2023-05-19T10:00:23.347Z,40.48
2023-05-19T10:06:16.516Z,39.58
2023-05-19T10:08:54.090Z,39.21
2023-05-19T10:14:13.606Z,38.82
2023-05-19T10:16:45.558Z,37.99
2023-05-19T10:19:23.321Z,36.75
2023-05-19T10:21:52.557Z,34.88
2023-05-19T10:30:25.458Z,34.26
2023-05-19T10:33:07.194Z,33.48
2023-05-19T10:35:58.922Z,33.94
2023-05-19T10:46:56.788Z,35.72
2023-05-19T10:49:44.842Z,36.99
2023-05-19T10:52:27.113Z,37.37
2023-05-19T10:54:55.061Z,37.43
2023-05-19T10:57:39.354Z,36.89
2023-05-19T11:00:32.262Z,37.31
2023-05-19T11:03:21.383Z,37.51
2023-05-19T11:05:59.034Z,38.64
2023-05-19T11:08:36.634Z,37.93
2023-05-19T11:12:32.207Z,37.95
2023-05-19T11:15:13.332Z,37.72
2023-05-19T11:20:54.410Z,37.55
2023-05-19T11:32:49.395Z,37.75
2023-05-19T11:48:11.680Z,38.41
2023-05-19T12:08:19.234Z,38.94
2023-05-19T12:10:58.026Z,39.51
2023-05-19T12:13:28.129Z,39.21
2023-05-19T12:16:03.934Z,39.18
2023-05-19T12:21:21.878Z,37.87
2023-05-19T12:24:00.464Z,38.47
2023-05-19T12:29:29.026Z,39.30
2023-05-19T12:32:20.859Z,38.09
2023-05-19T12:37:28.249Z,38.63
2023-05-19T12:45:55.137Z,37.95
2023-05-19T12:48:39.506Z,37.99
2023-05-19T12:51:35.138Z,38.78
2023-05-19T12:54:12.073Z,37.42
2023-05-19T13:02:18.261Z,37.56
2023-05-19T13:07:30.399Z,37.18
2023-05-19T13:31:03.834Z,37.55
2023-05-19T13:33:30.619Z,37.11
2023-05-19T13:39:09.724Z,35.83
2023-05-19T13:44:40.417Z,34.94
2023-05-19T13:47:17.360Z,34.84
2023-05-19T13:56:39.547Z,34.34
2023-05-19T14:00:03.245Z,34.36
2023-05-19T14:03:01.971Z,34.76
2023-05-19T14:05:36.583Z,34.03
2023-05-19T14:13:41.090Z,34.74
2023-05-19T14:16:13.961Z,35.49
2023-05-19T14:22:01.148Z,36.42
2023-05-19T14:24:49.719Z,36.77
2023-05-19T14:30:11.249Z,37.94
2023-05-19T14:32:54.220Z,37.78
2023-05-19T14:35:25.189Z,37.33
2023-05-19T14:37:51.913Z,37.76
2023-05-19T14:57:03.070Z,38.60
2023-05-19T15:05:51.051Z,38.79
2023-05-19T15:08:25.385Z,39.32
2023-05-19T15:13:36.879Z,39.77
2023-05-19T15:19:32.163Z,39.09
2023-05-19T15:34:48.889Z,40.03
2023-05-19T15:40:05.234Z,39.56
2023-05-19T15:42:36.175Z,39.49
2023-05-19T15:50:37.834Z,38.86
2023-05-19T16:07:57.939Z,39.51
2023-05-19T16:15:56.658Z,36.94
2023-05-19T16:21:42.941Z,36.31
2023-05-19T16:24:09.916Z,37.18
2023-05-19T16:26:37.119Z,37.19
2023-05-19T16:29:09.050Z,37.56
2023-05-19T16:31:53.199Z,38.13
2023-05-19T16:34:32.153Z,37.86
2023-05-19T16:37:12.632Z,37.61
2023-05-19T16:40:04.813Z,37.39
2023-05-19T16:42:40.236Z,37.05
2023-05-19T16:45:22.402Z,37.40
2023-05-19T16:50:47.434Z,38.07
2023-05-19T16:58:53.233Z,37.97
2023-05-19T17:01:26.988Z,37.72
2023-05-19T17:07:46.346Z,38.05
2023-05-19T17:10:20.166Z,38.24
2023-05-19T17:15:43.754Z,38.74
2023-05-19T17:18:14.503Z,38.80
2023-05-19T17:20:47.668Z,38.96
2023-05-19T17:34:40.805Z,39.03
2023-05-19T17:37:07.798Z,39.49
2023-05-19T17:39:39.609Z,39.56
2023-05-19T17:48:22.284Z,39.50
2023-05-19T17:50:51.133Z,39.47
2023-05-19T17:53:19.897Z,39.65
2023-05-19T18:04:38.705Z,39.55
2023-05-19T18:09:52.171Z,40.08
2023-05-19T18:12:24.807Z,40.49
2023-05-19T18:14:57.830Z,40.41
2023-05-19T18:17:28.521Z,40.27
2023-05-19T18:28:15.206Z,39.43
2023-05-19T18:30:42.899Z,40.11
2023-05-19T18:38:45.374Z,39.45
2023-05-19T18:43:55.776Z,40.35
2023-05-19T18:52:02.191Z,40.93
2023-05-19T18:54:38.474Z,41.23
2023-05-19T18:57:32.202Z,41.51
2023-05-19T19:00:07.932Z,41.89
2023-05-19T19:02:37.467Z,42.71
2023-05-19T19:05:08.238Z,43.06
2023-05-19T19:07:41.624Z,43.57
2023-05-19T19:10:14.193Z,43.25
2023-05-19T19:12:42.259Z,43.57
2023-05-19T19:21:32.281Z,44.75
2023-05-19T19:29:46.357Z,45.51
2023-05-19T19:34:59.592Z,46.08
2023-05-19T19:37:27.231Z,46.66
2023-05-19T19:39:55.935Z,46.68
2023-05-19T19:42:25.108Z,47.17
2023-05-19T19:44:55.899Z,47.46
2023-05-19T19:47:27.906Z,47.92
2023-05-19T19:50:12.458Z,48.05
2023-05-19T19:52:39.472Z,48.41
2023-05-19T19:55:09.618Z,48.55
2023-05-19T19:57:38.565Z,48.70
2023-05-19T20:03:29.183Z,49.26
2023-05-19T20:06:06.849Z,49.40
2023-05-19T20:08:35.487Z,49.68
2023-05-19T20:22:35.312Z,50.71
2023-05-19T20:25:03.069Z,50.43
2023-05-19T20:27:32.131Z,50.36
2023-05-19T20:30:00.196Z,50.24
2023-05-19T20:35:17.680Z,50.21
2023-05-19T20:37:45.850Z,50.46
2023-05-19T20:40:14.492Z,50.58
2023-05-19T20:42:47.406Z,50.40
2023-05-19T20:53:54.166Z,51.67
2023-05-19T20:56:55.215Z,51.83
2023-05-19T20:59:47.244Z,52.45
2023-05-19T21:05:21.060Z,53.24
2023-05-19T21:07:57.539Z,53.35
2023-05-19T21:13:46.918Z,54.29
2023-05-19T21:20:05.499Z,55.36
2023-05-19T21:28:01.434Z,56.75
2023-05-19T21:30:29.730Z,57.45
2023-05-19T21:35:41.184Z,57.95
2023-05-19T21:38:22.725Z,58.52
2023-05-19T22:02:43.333Z,62.09
2023-05-19T22:08:01.439Z,62.43
2023-05-19T22:10:28.482Z,63.04
2023-05-19T22:12:58.113Z,63.63
2023-05-19T22:15:38.186Z,64.02
2023-05-19T22:18:10.136Z,64.23
2023-05-19T22:20:41.039Z,64.77
2023-05-19T22:25:55.035Z,65.42
2023-05-19T22:28:22.192Z,65.91
2023-05-19T22:30:49.937Z,66.07
2023-05-19T22:33:16.800Z,66.65
2023-05-19T22:35:48.031Z,66.50
2023-05-19T22:38:15.074Z,67.00
2023-05-19T22:43:25.727Z,67.46
2023-05-19T22:45:54.914Z,68.19
2023-05-19T22:48:21.489Z,68.77
2023-05-19T22:50:48.096Z,68.97
2023-05-19T22:53:15.807Z,68.41
2023-05-19T22:55:42.590Z,68.71
2023-05-19T22:58:12.556Z,68.61
2023-05-19T23:00:39.272Z,69.18
2023-05-19T23:03:06.267Z,69.75
2023-05-19T23:05:33.163Z,69.99
2023-05-19T23:08:00.197Z,69.65
2023-05-19T23:10:27.022Z,69.96
2023-05-19T23:12:55.754Z,70.19
2023-05-19T23:15:22.412Z,70.53
2023-05-19T23:17:49.152Z,70.76
2023-05-19T23:20:17.598Z,71.06
2023-05-19T23:22:47.118Z,72.11
2023-05-19T23:25:14.173Z,71.78
2023-05-19T23:27:41.234Z,72.09
2023-05-19T23:30:13.546Z,72.25
2023-05-19T23:32:41.255Z,72.76
2023-05-19T23:35:11.568Z,73.13
2023-05-19T23:37:51.534Z,73.67
2023-05-19T23:40:18.632Z,74.36
2023-05-19T23:42:47.418Z,75.61
2023-05-19T23:45:14.661Z,76.21
2023-05-19T23:47:41.532Z,76.95
2023-05-19T23:50:09.205Z,77.25
2023-05-19T23:52:36.902Z,78.08
2023-05-19T23:55:04.009Z,78.38
2023-05-19T23:57:32.058Z,78.98
